createdAt,value
2022-11-04T00:00:28.604Z,10.75
2022-11-04T00:03:00.869Z,10.68
2022-11-04T00:05:28.242Z,9.77
2022-11-04T00:08:13.998Z,10.23
2022-11-04T00:10:59.927Z,10.27
2022-11-04T00:13:30.243Z,10.57
2022-11-04T00:16:21.779Z,10.75
2022-11-04T00:18:52.057Z,9.45
2022-11-04T00:21:41.276Z,10.30
2022-11-04T00:24:29.633Z,10.75
2022-11-04T00:27:15.823Z,10.55
2022-11-04T00:29:43.352Z,10.27
2022-11-04T00:32:29.181Z,10.15
2022-11-04T00:35:02.568Z,10.20
2022-11-04T00:37:32.969Z,9.68
2022-11-04T00:40:02.351Z,11.15
2022-11-04T00:42:33.865Z,10.65
2022-11-04T00:45:09.820Z,10.70
2022-11-04T00:47:37.192Z,9.63
2022-11-04T00:50:10.131Z,9.95
2022-11-04T00:52:45.491Z,9.00
2022-11-04T00:55:16.552Z,9.48
2022-11-04T00:57:43.861Z,9.52
2022-11-04T01:00:16.993Z,9.88
2022-11-04T01:02:48.218Z,9.73
2022-11-04T01:05:16.029Z,9.63
2022-11-04T01:07:48.673Z,9.10
2022-11-04T01:10:18.298Z,8.73
2022-11-04T01:12:48.637Z,9.00
2022-11-04T01:15:18.463Z,9.57
2022-11-04T01:17:45.944Z,9.13
2022-11-04T01:20:20.932Z,8.80
2022-11-04T01:22:50.765Z,8.90
2022-11-04T01:25:21.047Z,10.05
2022-11-04T01:27:55.852Z,9.23
2022-11-04T01:30:24.132Z,8.40
2022-11-04T01:32:51.539Z,8.45
2022-11-04T01:35:25.141Z,9.68
2022-11-04T01:37:53.152Z,8.48
2022-11-04T01:40:23.147Z,8.27
2022-11-04T01:42:51.108Z,8.68
2022-11-04T01:45:24.387Z,8.63
2022-11-04T01:48:17.977Z,7.95
2022-11-04T01:50:45.963Z,8.77
2022-11-04T01:53:24.762Z,9.43
2022-11-04T01:56:04.389Z,7.50
2022-11-04T01:58:34.353Z,8.55
2022-11-04T02:01:04.289Z,7.85
2022-11-04T02:03:46.428Z,7.25
2022-11-04T02:06:20.064Z,7.95
2022-11-04T02:08:48.615Z,8.05
2022-11-04T02:11:40.405Z,7.47
2022-11-04T02:14:08.026Z,8.63
2022-11-04T02:16:44.327Z,7.93
2022-11-04T02:19:48.757Z,7.38
2022-11-04T02:22:55.662Z,7.90
2022-11-04T02:25:34.632Z,7.70
2022-11-04T02:28:39.390Z,7.68
2022-11-04T02:31:33.648Z,9.10
2022-11-04T02:36:58.834Z,7.60
2022-11-04T02:40:09.923Z,7.88
2022-11-04T02:42:49.020Z,7.65
2022-11-04T02:45:22.032Z,9.05
2022-11-04T02:47:56.932Z,7.10
2022-11-04T02:50:41.475Z,6.97
2022-11-04T02:53:21.295Z,7.13
2022-11-04T02:55:53.678Z,6.90
2022-11-04T02:58:35.420Z,7.40
2022-11-04T03:01:09.349Z,7.72
2022-11-04T03:03:45.870Z,7.03
2022-11-04T03:06:19.435Z,8.52
2022-11-04T03:11:25.499Z,6.53
2022-11-04T03:14:05.353Z,7.45
2022-11-04T03:16:59.652Z,7.32
2022-11-04T03:22:21.148Z,6.55
2022-11-04T03:24:52.468Z,5.93
2022-11-04T03:27:32.518Z,6.85
2022-11-04T03:30:05.811Z,7.40
2022-11-04T03:32:39.038Z,7.35
2022-11-04T03:35:10.213Z,7.18
2022-11-04T03:37:40.472Z,7.55
2022-11-04T03:40:09.123Z,7.28
2022-11-04T03:42:46.454Z,6.80
2022-11-04T03:45:16.531Z,6.50
2022-11-04T03:47:46.179Z,7.03
2022-11-04T03:50:26.929Z,7.97
2022-11-04T03:52:59.965Z,7.07
2022-11-04T03:56:09.163Z,7.20
2022-11-04T03:59:04.648Z,7.35
2022-11-04T04:01:53.187Z,7.38
2022-11-04T04:04:31.075Z,7.28
2022-11-04T04:07:09.447Z,7.25
2022-11-04T04:09:58.115Z,7.07
2022-11-04T04:12:42.114Z,7.13
2022-11-04T04:15:22.064Z,7.35
2022-11-04T04:18:01.921Z,7.70
2022-11-04T04:20:32.677Z,6.95
2022-11-04T04:23:36.574Z,7.10
2022-11-04T04:26:28.512Z,7.43
2022-11-04T04:29:02.835Z,6.40
2022-11-04T04:31:52.523Z,7.07
2022-11-04T04:34:33.408Z,8.07
2022-11-04T04:37:10.884Z,6.93
2022-11-04T04:40:17.564Z,6.75
2022-11-04T04:43:08.905Z,6.45
2022-11-04T04:45:45.295Z,6.78
2022-11-04T04:48:20.305Z,6.68
2022-11-04T04:50:51.343Z,7.43
2022-11-04T04:53:18.790Z,7.30
2022-11-04T04:55:51.478Z,7.05
2022-11-04T04:58:21.696Z,6.25
2022-11-04T05:00:54.294Z,6.93
2022-11-04T05:03:26.207Z,6.97
2022-11-04T05:05:58.691Z,6.90
2022-11-04T05:08:35.247Z,6.75
2022-11-04T05:13:34.573Z,7.75
2022-11-04T05:16:07.752Z,7.38
2022-11-04T05:18:35.341Z,6.80
2022-11-04T05:21:09.959Z,7.80
2022-11-04T05:23:40.034Z,6.75
2022-11-04T05:26:11.468Z,6.85
2022-11-04T05:28:44.600Z,7.25
2022-11-04T05:31:12.372Z,5.88
2022-11-04T05:33:39.827Z,7.65
2022-11-04T05:36:13.034Z,7.38
2022-11-04T05:39:03.271Z,7.00
2022-11-04T05:41:33.551Z,6.97
2022-11-04T05:44:02.624Z,5.95
2022-11-04T05:46:34.815Z,6.82
2022-11-04T05:49:06.809Z,6.10
2022-11-04T05:51:36.316Z,6.53
2022-11-04T05:54:09.688Z,7.70
2022-11-04T05:56:39.844Z,7.15
2022-11-04T05:59:13.101Z,6.13
2022-11-04T06:01:45.057Z,6.82
2022-11-04T06:04:19.242Z,8.13
2022-11-04T06:06:49.093Z,6.35
2022-11-04T06:09:22.545Z,7.30
2022-11-04T06:11:55.085Z,7.32
2022-11-04T06:14:28.421Z,7.68
2022-11-04T06:16:55.928Z,7.18
2022-11-04T06:19:31.162Z,8.27
2022-11-04T06:22:06.182Z,8.13
2022-11-04T06:24:33.490Z,6.75
2022-11-04T06:27:00.829Z,6.88
2022-11-04T06:29:28.690Z,5.47
2022-11-04T06:32:06.373Z,7.07
2022-11-04T06:34:33.701Z,7.15
2022-11-04T06:37:09.788Z,7.22
2022-11-04T06:39:48.420Z,6.35
2022-11-04T06:42:21.273Z,6.38
2022-11-04T06:44:54.526Z,7.63
2022-11-04T06:47:31.889Z,7.30
2022-11-04T06:50:07.544Z,6.35
2022-11-04T06:52:39.494Z,7.47
2022-11-04T06:55:10.117Z,7.22
2022-11-04T06:57:42.751Z,6.38
2022-11-04T07:00:15.362Z,7.60
2022-11-04T07:02:45.650Z,7.57
2022-11-04T07:05:14.925Z,8.48
2022-11-04T07:07:53.230Z,6.45
2022-11-04T07:10:23.545Z,6.75
2022-11-04T07:12:51.278Z,7.35
2022-11-04T07:15:27.259Z,6.43
2022-11-04T07:17:55.285Z,6.72
2022-11-04T07:20:28.447Z,6.47
2022-11-04T07:22:56.508Z,6.68
2022-11-04T07:25:25.384Z,6.30
2022-11-04T07:27:56.748Z,7.45
2022-11-04T07:30:29.519Z,5.93
2022-11-04T07:33:00.592Z,6.40
2022-11-04T07:35:28.457Z,9.80
2022-11-04T07:37:58.923Z,5.80
2022-11-04T07:40:39.594Z,6.45
2022-11-04T07:43:12.297Z,7.88
2022-11-04T07:45:46.470Z,6.80
2022-11-04T07:48:19.525Z,7.35
2022-11-04T07:50:50.702Z,6.40
2022-11-04T07:53:24.447Z,5.30
2022-11-04T07:55:52.718Z,6.45
2022-11-04T07:58:26.941Z,6.75
2022-11-04T08:01:10.480Z,5.80
2022-11-04T08:03:41.394Z,7.82
2022-11-04T08:06:21.431Z,5.93
2022-11-04T08:09:00.219Z,5.63
2022-11-04T08:11:40.139Z,7.55
2022-11-04T08:14:17.385Z,6.77
2022-11-04T08:16:57.446Z,7.38
2022-11-04T08:19:37.100Z,5.55
2022-11-04T08:22:16.468Z,6.55
2022-11-04T08:24:53.295Z,6.50
2022-11-04T08:27:37.047Z,5.72
2022-11-04T08:30:11.457Z,6.95
2022-11-04T08:32:55.833Z,6.85
2022-11-04T08:35:38.324Z,5.63
2022-11-04T08:38:25.393Z,6.20
2022-11-04T08:41:07.489Z,4.68
2022-11-04T08:43:44.700Z,7.68
2022-11-04T08:46:20.968Z,5.13
2022-11-04T08:49:01.080Z,6.13
2022-11-04T08:51:42.657Z,3.50
2022-11-04T08:54:14.901Z,5.85
2022-11-04T08:56:46.337Z,3.55
2022-11-04T08:59:30.378Z,4.40
2022-11-04T09:02:04.564Z,6.97
2022-11-04T09:04:38.875Z,3.58
2022-11-04T09:07:10.706Z,4.85
2022-11-04T09:09:43.393Z,4.80
2022-11-04T09:12:17.668Z,5.20
2022-11-04T09:14:45.568Z,5.65
2022-11-04T09:17:13.772Z,4.60
2022-11-04T09:19:50.058Z,5.40
2022-11-04T09:22:21.091Z,4.50
2022-11-04T09:24:56.072Z,7.57
2022-11-04T09:27:35.861Z,3.28
2022-11-04T09:30:09.730Z,3.90
2022-11-04T09:32:42.056Z,6.82
2022-11-04T09:35:19.377Z,4.28
2022-11-04T09:37:53.359Z,4.50
2022-11-04T09:40:24.333Z,6.68
2022-11-04T09:43:22.393Z,4.28
2022-11-04T09:45:50.829Z,3.03
2022-11-04T09:48:49.652Z,3.72
2022-11-04T09:51:48.368Z,3.35
2022-11-04T09:54:51.904Z,6.50
2022-11-04T09:57:26.441Z,4.20
2022-11-04T10:00:17.906Z,3.03
2022-11-04T10:02:54.921Z,7.13
2022-11-04T10:05:29.404Z,3.35
2022-11-04T10:08:07.678Z,3.22
2022-11-04T10:10:48.777Z,2.20
2022-11-04T10:13:26.710Z,2.72
2022-11-04T10:16:20.053Z,5.20
2022-11-04T10:19:10.982Z,3.72
2022-11-04T10:21:47.203Z,4.28
2022-11-04T10:24:31.975Z,2.50
2022-11-04T10:27:16.404Z,7.20
2022-11-04T10:30:01.794Z,6.88
2022-11-04T10:32:40.856Z,1.95
2022-11-04T10:35:32.484Z,3.70
2022-11-04T10:38:30.841Z,3.72
2022-11-04T10:41:07.062Z,5.60
2022-11-04T10:43:44.224Z,3.38
2022-11-04T10:46:38.302Z,3.35
2022-11-04T10:49:28.363Z,5.50
2022-11-04T10:52:00.393Z,3.53
2022-11-04T10:54:48.746Z,3.63
2022-11-04T10:57:28.470Z,3.00
2022-11-04T11:00:06.073Z,3.70
2022-11-04T11:02:42.436Z,3.78
2022-11-04T11:05:27.277Z,3.00
2022-11-04T11:07:58.259Z,3.65
2022-11-04T11:10:37.871Z,1.63
2022-11-04T11:13:27.584Z,4.18
2022-11-04T11:16:12.007Z,3.03
2022-11-04T11:19:03.409Z,2.25
2022-11-04T11:21:48.906Z,2.65
2022-11-04T11:24:25.488Z,2.75
2022-11-04T11:27:23.692Z,2.75
2022-11-04T11:29:56.481Z,1.10
2022-11-04T11:32:36.161Z,2.20
2022-11-04T11:35:18.789Z,1.80
2022-11-04T11:37:50.750Z,2.30
2022-11-04T11:40:47.468Z,2.53
2022-11-04T11:43:36.100Z,2.50
2022-11-04T11:46:14.366Z,2.95
2022-11-04T11:48:53.789Z,3.58
2022-11-04T11:51:39.194Z,3.03
2022-11-04T11:54:32.926Z,2.45
2022-11-04T11:57:25.561Z,2.95
2022-11-04T12:03:03.633Z,2.13
2022-11-04T12:11:49.300Z,2.72
2022-11-04T12:14:30.999Z,1.95
2022-11-04T12:17:37.630Z,1.58
2022-11-04T12:20:39.414Z,2.28
2022-11-04T12:23:18.212Z,3.70
2022-11-04T12:26:14.330Z,3.45
2022-11-04T12:28:59.502Z,2.15
2022-11-04T12:31:54.507Z,3.47
2022-11-04T12:34:45.496Z,2.08
2022-11-04T12:37:39.636Z,2.97
2022-11-04T12:43:30.745Z,1.88
2022-11-04T12:46:49.305Z,1.73
2022-11-04T12:49:28.961Z,2.38
2022-11-04T12:52:12.562Z,2.13
2022-11-04T12:55:07.565Z,2.42
2022-11-04T12:57:48.408Z,1.77
2022-11-04T13:00:27.761Z,1.90
2022-11-04T13:03:14.942Z,2.45
2022-11-04T13:06:12.383Z,0.95
2022-11-04T13:08:54.857Z,1.00
2022-11-04T13:12:20.323Z,1.10
2022-11-04T13:15:10.928Z,1.65
2022-11-04T13:17:47.413Z,1.73
2022-11-04T13:20:39.992Z,2.85
2022-11-04T13:23:29.255Z,2.20
2022-11-04T13:26:03.502Z,2.03
2022-11-04T13:28:42.654Z,2.50
2022-11-04T13:31:30.810Z,2.80
2022-11-04T13:34:57.951Z,1.70
2022-11-04T13:37:40.444Z,2.47
2022-11-04T13:40:22.360Z,1.75
2022-11-04T13:43:47.164Z,1.05
2022-11-04T13:49:14.813Z,2.03
2022-11-04T13:54:35.859Z,1.55
2022-11-04T13:57:10.412Z,1.27
2022-11-04T13:59:44.425Z,1.42
2022-11-04T14:02:15.194Z,1.60
2022-11-04T14:04:52.427Z,1.58
2022-11-04T14:08:19.393Z,4.70
2022-11-04T14:10:53.108Z,1.88
2022-11-04T14:13:30.087Z,3.53
2022-11-04T14:16:25.732Z,2.83
2022-11-04T14:18:56.745Z,3.95
2022-11-04T14:21:32.985Z,1.40
2022-11-04T14:24:16.220Z,1.85
2022-11-04T14:26:54.386Z,1.85
2022-11-04T14:29:33.972Z,2.65
2022-11-04T14:32:15.024Z,2.05
2022-11-04T14:34:44.750Z,2.45
2022-11-04T14:37:23.402Z,2.15
2022-11-04T14:40:05.385Z,1.67
2022-11-04T14:42:57.262Z,1.67
2022-11-04T14:45:39.593Z,2.38
2022-11-04T14:48:19.546Z,3.70
2022-11-04T14:50:52.125Z,4.32
2022-11-04T14:53:37.987Z,3.03
2022-11-04T14:56:36.623Z,1.42
2022-11-04T14:59:10.724Z,3.45
2022-11-04T15:01:42.858Z,1.80
2022-11-04T15:04:32.584Z,5.47
2022-11-04T15:07:07.466Z,5.30
2022-11-04T15:09:44.143Z,2.33
2022-11-04T15:12:42.475Z,3.58
2022-11-04T15:15:27.365Z,2.35
2022-11-04T15:18:09.909Z,2.75
2022-11-04T15:20:56.357Z,2.53
2022-11-04T15:23:58.852Z,2.50
2022-11-04T15:26:34.288Z,3.58
2022-11-04T15:29:14.148Z,4.90
2022-11-04T15:31:59.314Z,2.83
2022-11-04T15:34:50.635Z,2.15
2022-11-04T15:37:29.042Z,2.75
2022-11-04T15:40:09.991Z,3.22
2022-11-04T15:42:47.074Z,2.22
2022-11-04T15:45:39.426Z,2.90
2022-11-04T15:48:38.239Z,1.95
2022-11-04T15:51:26.035Z,4.68
2022-11-04T15:54:29.819Z,1.67
2022-11-04T15:57:04.983Z,2.05
2022-11-04T15:59:38.462Z,2.22
2022-11-04T16:02:23.529Z,4.57
2022-11-04T16:05:14.643Z,2.90
2022-11-04T16:07:51.950Z,4.30
2022-11-04T16:10:32.629Z,4.57
2022-11-04T16:13:16.800Z,2.67
2022-11-04T16:16:28.293Z,5.97
2022-11-04T16:18:59.547Z,2.65
2022-11-04T16:21:34.935Z,5.53
2022-11-04T16:24:20.067Z,3.22
2022-11-04T16:26:55.557Z,14.27
2022-11-04T16:29:47.670Z,5.30
2022-11-04T16:32:48.954Z,3.42
